createdAt,value
2023-06-06T00:00:20.087Z,92358.84
2023-06-06T00:02:52.593Z,92354.84
2023-06-06T00:05:27.665Z,92353.94
2023-06-06T00:08:00.240Z,92350.13
2023-06-06T00:10:32.768Z,92347.50
2023-06-06T00:13:05.083Z,92349.16
2023-06-06T00:15:39.473Z,92349.44
2023-06-06T00:18:12.351Z,92346.69
2023-06-06T00:20:45.252Z,92341.28
2023-06-06T00:23:17.967Z,92340.06
2023-06-06T00:25:51.417Z,92336.22
2023-06-06T00:28:23.761Z,92339.09
2023-06-06T00:30:58.084Z,92339.31
2023-06-06T00:33:30.437Z,92335.66
2023-06-06T00:36:03.169Z,92331.16
2023-06-06T00:38:35.831Z,92325.44
2023-06-06T00:41:08.378Z,92338.09
2023-06-06T00:43:41.119Z,92337.31
2023-06-06T00:46:16.669Z,92339.03
2023-06-06T00:48:49.854Z,92344.13
2023-06-06T00:51:22.516Z,92348.28
2023-06-06T00:53:58.177Z,92343.81
2023-06-06T00:56:31.096Z,92346.63
2023-06-06T00:59:04.535Z,92339.84
2023-06-06T01:01:39.609Z,92338.31
2023-06-06T01:04:13.006Z,92352.97
2023-06-06T01:06:46.909Z,92347.88
2023-06-06T01:09:21.940Z,92348.03
2023-06-06T01:12:04.139Z,92352.06
2023-06-06T01:14:45.387Z,92350.06
2023-06-06T01:17:19.810Z,92356.69
2023-06-06T01:19:52.936Z,92350.81
2023-06-06T01:22:27.828Z,92356.69
2023-06-06T01:25:00.285Z,92359.31
2023-06-06T01:27:33.894Z,92363.63
2023-06-06T01:30:08.324Z,92361.31
2023-06-06T01:32:49.425Z,92349.75
2023-06-06T01:35:29.231Z,92361.66
2023-06-06T01:38:09.101Z,92353.59
2023-06-06T01:40:43.421Z,92361.16
2023-06-06T01:43:17.259Z,92354.53
2023-06-06T01:45:51.630Z,92357.78
2023-06-06T01:48:25.598Z,92353.16
2023-06-06T01:50:57.992Z,92359.03
2023-06-06T01:53:30.997Z,92357.94
2023-06-06T01:56:03.454Z,92357.63
2023-06-06T01:58:36.112Z,92351.91
2023-06-06T02:01:09.210Z,92369.66
2023-06-06T02:03:41.923Z,92364.97
2023-06-06T02:06:14.379Z,92371.16
2023-06-06T02:08:48.125Z,92369.75
2023-06-06T02:11:23.465Z,92360.19
2023-06-06T02:13:57.553Z,92368.81
2023-06-06T02:16:30.264Z,92371.59
2023-06-06T02:19:02.882Z,92375.72
2023-06-06T02:21:35.759Z,92371.56
2023-06-06T02:24:08.995Z,92377.88
2023-06-06T02:26:42.893Z,92383.59
2023-06-06T02:29:15.841Z,92378.81
2023-06-06T02:31:48.663Z,92384.22
2023-06-06T02:34:22.096Z,92388.50
2023-06-06T02:36:54.554Z,92385.72
2023-06-06T02:39:27.537Z,92382.16
2023-06-06T02:42:00.080Z,92380.75
2023-06-06T02:44:33.188Z,92386.84
2023-06-06T02:47:06.276Z,92391.94
2023-06-06T02:49:38.648Z,92394.41
2023-06-06T02:52:11.775Z,92393.16
2023-06-06T02:54:44.818Z,92398.97
2023-06-06T02:57:17.311Z,92398.34
2023-06-06T02:59:49.694Z,92405.28
2023-06-06T03:02:22.083Z,92394.03
2023-06-06T03:04:56.602Z,92400.16
2023-06-06T03:07:28.959Z,92402.13
2023-06-06T03:10:01.937Z,92406.88
2023-06-06T03:12:40.612Z,92401.78
2023-06-06T03:15:12.962Z,92402.53
2023-06-06T03:17:49.463Z,92411.00
2023-06-06T03:20:22.823Z,92402.38
2023-06-06T03:23:19.023Z,92414.50
2023-06-06T03:25:52.193Z,92410.81
2023-06-06T03:28:24.740Z,92404.53
2023-06-06T03:30:59.248Z,92409.94
2023-06-06T03:33:33.234Z,92407.03
2023-06-06T03:36:07.985Z,92405.94
2023-06-06T03:38:40.675Z,92410.84
2023-06-06T03:41:14.675Z,92405.63
2023-06-06T03:43:47.543Z,92401.91
2023-06-06T03:46:21.109Z,92403.56
2023-06-06T03:48:53.842Z,92403.41
2023-06-06T03:51:26.179Z,92413.09
2023-06-06T03:53:58.503Z,92414.94
2023-06-06T03:56:32.706Z,92409.88
2023-06-06T03:59:06.360Z,92417.72
2023-06-06T04:01:38.710Z,92398.22
2023-06-06T04:04:14.193Z,92396.22
2023-06-06T04:06:46.520Z,92403.00
2023-06-06T04:09:18.866Z,92395.72
2023-06-06T04:11:51.924Z,92402.50
2023-06-06T04:14:24.684Z,92392.06
2023-06-06T04:16:57.327Z,92385.81
2023-06-06T04:19:30.849Z,92392.47
2023-06-06T04:22:05.517Z,92393.13
2023-06-06T04:24:37.828Z,92397.78
2023-06-06T04:27:11.089Z,92394.28
2023-06-06T04:29:45.350Z,92392.13
2023-06-06T04:32:19.911Z,92397.09
2023-06-06T04:34:57.839Z,92399.03
2023-06-06T04:37:32.617Z,92399.97
2023-06-06T04:40:07.738Z,92400.91
2023-06-06T04:42:41.271Z,92400.13
2023-06-06T04:45:13.705Z,92399.56
2023-06-06T04:47:46.093Z,92398.31
2023-06-06T04:50:20.382Z,92396.88
2023-06-06T04:52:53.175Z,92396.78
2023-06-06T04:55:27.974Z,92398.50
2023-06-06T04:58:03.341Z,92392.31
2023-06-06T05:00:36.175Z,92395.41
2023-06-06T05:03:08.593Z,92392.22
2023-06-06T05:05:40.982Z,92403.31
2023-06-06T05:08:13.347Z,92405.13
2023-06-06T05:10:45.714Z,92399.44
2023-06-06T05:13:18.752Z,92402.84
2023-06-06T05:15:51.123Z,92399.16
2023-06-06T05:18:24.621Z,92406.28
2023-06-06T05:21:00.851Z,92406.75
2023-06-06T05:23:33.341Z,92407.69
2023-06-06T05:26:05.833Z,92408.78
2023-06-06T05:28:39.701Z,92415.44
2023-06-06T05:31:17.137Z,92406.50
2023-06-06T05:33:49.544Z,92409.59
2023-06-06T05:36:22.116Z,92406.22
2023-06-06T05:38:54.968Z,92405.88
2023-06-06T05:41:27.426Z,92410.38
2023-06-06T05:44:00.453Z,92405.28
2023-06-06T05:46:33.928Z,92408.06
2023-06-06T05:49:06.282Z,92400.81
2023-06-06T05:51:38.686Z,92404.22
2023-06-06T05:54:17.369Z,92404.38
2023-06-06T05:56:50.815Z,92398.97
2023-06-06T05:59:23.897Z,92407.78
2023-06-06T06:01:56.278Z,92398.97
2023-06-06T06:04:30.583Z,92399.28
2023-06-06T06:07:03.595Z,92392.94
2023-06-06T06:09:35.997Z,92391.34
2023-06-06T06:12:09.069Z,92389.66
2023-06-06T06:14:42.096Z,92400.75
2023-06-06T06:17:14.597Z,92386.53
2023-06-06T06:19:46.980Z,92396.78
2023-06-06T06:22:19.340Z,92401.41
2023-06-06T06:24:52.077Z,92398.88
2023-06-06T06:27:24.975Z,92392.16
2023-06-06T06:29:58.103Z,92401.97
2023-06-06T06:32:30.592Z,92403.16
2023-06-06T06:35:04.435Z,92402.47
2023-06-06T06:37:37.816Z,92394.22
2023-06-06T06:40:11.108Z,92402.00
2023-06-06T06:42:44.547Z,92398.22
2023-06-06T06:45:35.335Z,92396.41
2023-06-06T06:48:07.739Z,92400.16
2023-06-06T06:50:40.765Z,92406.38
2023-06-06T06:53:14.160Z,92400.28
2023-06-06T06:55:46.505Z,92406.31
2023-06-06T06:58:25.582Z,92408.56
2023-06-06T07:00:58.959Z,92413.28
2023-06-06T07:03:34.554Z,92413.63
2023-06-06T07:06:08.283Z,92413.56
2023-06-06T07:08:42.025Z,92411.25
2023-06-06T07:11:14.407Z,92407.44
2023-06-06T07:13:46.735Z,92412.25
2023-06-06T07:16:20.667Z,92406.00
2023-06-06T07:18:53.645Z,92409.72
2023-06-06T07:21:26.258Z,92408.38
2023-06-06T07:23:58.756Z,92416.38
2023-06-06T07:26:31.164Z,92412.50
2023-06-06T07:29:04.024Z,92415.69
2023-06-06T07:31:38.346Z,92406.22
2023-06-06T07:34:10.868Z,92408.31
2023-06-06T07:37:02.685Z,92411.47
2023-06-06T07:39:35.011Z,92418.59
2023-06-06T07:42:07.839Z,92413.44
2023-06-06T07:44:40.254Z,92413.31
2023-06-06T07:47:31.908Z,92413.53
2023-06-06T07:50:18.284Z,92415.00
2023-06-06T07:52:50.620Z,92413.88
2023-06-06T07:55:25.234Z,92419.19
2023-06-06T07:57:57.713Z,92418.22
2023-06-06T08:00:49.983Z,92423.16
2023-06-06T08:03:23.021Z,92428.19
2023-06-06T08:05:55.494Z,92418.38
2023-06-06T08:08:27.864Z,92418.53
2023-06-06T08:11:00.151Z,92420.91
2023-06-06T08:13:32.946Z,92424.44
2023-06-06T08:16:05.851Z,92413.88
2023-06-06T08:18:39.479Z,92416.69
2023-06-06T08:21:12.694Z,92421.22
2023-06-06T08:23:45.399Z,92414.19
2023-06-06T08:26:17.812Z,92411.03
2023-06-06T08:28:53.146Z,92414.09
2023-06-06T08:31:25.649Z,92417.66
2023-06-06T08:33:58.693Z,92414.66
2023-06-06T08:36:31.039Z,92410.47
2023-06-06T08:39:06.695Z,92404.88
2023-06-06T08:41:43.325Z,92402.28
2023-06-06T08:44:15.733Z,92407.06
2023-06-06T08:46:51.432Z,92401.44
2023-06-06T08:49:27.415Z,92406.22
2023-06-06T08:52:01.684Z,92406.66
2023-06-06T08:54:34.775Z,92395.47
2023-06-06T08:57:08.410Z,92402.69
2023-06-06T08:59:41.943Z,92398.63
2023-06-06T09:02:14.408Z,92393.25
2023-06-06T09:04:48.744Z,92389.13
2023-06-06T09:07:21.178Z,92391.00
2023-06-06T09:09:54.001Z,92389.66
2023-06-06T09:12:26.351Z,92380.88
2023-06-06T09:14:58.674Z,92379.06
2023-06-06T09:17:35.945Z,92382.84
2023-06-06T09:20:11.434Z,92384.94
2023-06-06T09:22:46.143Z,92372.38
2023-06-06T09:25:19.762Z,92379.38
2023-06-06T09:27:58.836Z,92379.09
2023-06-06T09:30:32.449Z,92383.78
2023-06-06T09:33:05.480Z,92370.59
2023-06-06T09:35:43.844Z,92368.19
2023-06-06T09:38:17.716Z,92360.88
2023-06-06T09:40:51.762Z,92371.72
2023-06-06T09:43:25.264Z,92363.53
2023-06-06T09:45:59.227Z,92359.81
2023-06-06T09:48:31.743Z,92356.53
2023-06-06T09:51:06.336Z,92357.91
2023-06-06T09:53:41.013Z,92359.47
2023-06-06T09:56:14.232Z,92346.50
2023-06-06T09:58:51.607Z,92353.41
2023-06-06T10:01:28.603Z,92342.47
2023-06-06T10:04:01.911Z,92351.97
2023-06-06T10:06:35.634Z,92340.66
2023-06-06T10:09:08.303Z,92344.56
2023-06-06T10:11:41.049Z,92349.53
2023-06-06T10:14:15.397Z,92338.16
2023-06-06T10:16:48.822Z,92345.28
2023-06-06T10:19:26.060Z,92341.44
2023-06-06T10:22:01.368Z,92348.28
2023-06-06T10:24:36.235Z,92341.72
2023-06-06T10:27:18.659Z,92326.81
2023-06-06T10:29:59.661Z,92334.56
2023-06-06T10:32:45.238Z,92331.50
2023-06-06T10:35:19.833Z,92326.16
2023-06-06T10:38:03.182Z,92325.34
2023-06-06T10:40:43.478Z,92325.69
2023-06-06T10:43:33.642Z,92324.19
2023-06-06T10:46:06.231Z,92319.94
2023-06-06T10:48:39.202Z,92315.66
2023-06-06T10:51:29.187Z,92316.00
2023-06-06T10:54:16.147Z,92304.88
2023-06-06T10:56:51.674Z,92302.31
2023-06-06T10:59:28.558Z,92302.34
2023-06-06T11:02:01.496Z,92295.41
2023-06-06T11:04:39.172Z,92293.31
2023-06-06T11:07:16.921Z,92285.09
2023-06-06T11:09:51.090Z,92283.56
2023-06-06T11:12:25.038Z,92282.56
2023-06-06T11:14:58.409Z,92284.00
2023-06-06T11:17:43.823Z,92274.47
2023-06-06T11:20:19.878Z,92277.22
2023-06-06T11:22:59.873Z,92276.03
2023-06-06T11:25:35.904Z,92271.75
2023-06-06T11:28:09.376Z,92266.00
2023-06-06T11:30:41.805Z,92269.34
2023-06-06T11:33:14.872Z,92262.59
2023-06-06T11:35:47.372Z,92256.94
2023-06-06T11:38:19.942Z,92241.72
2023-06-06T11:40:52.960Z,92242.81
2023-06-06T11:43:25.642Z,92248.16
2023-06-06T11:46:04.313Z,92253.19
2023-06-06T11:48:37.790Z,92243.06
2023-06-06T11:51:11.559Z,92244.00
2023-06-06T11:53:44.103Z,92248.16
2023-06-06T11:56:17.564Z,92235.56
2023-06-06T11:58:49.902Z,92237.56
2023-06-06T12:01:22.338Z,92230.69
2023-06-06T12:03:54.956Z,92226.25
2023-06-06T12:06:29.125Z,92225.59
2023-06-06T12:09:03.711Z,92224.88
2023-06-06T12:11:36.722Z,92226.38
2023-06-06T12:14:11.599Z,92227.09
2023-06-06T12:16:44.016Z,92221.75
2023-06-06T12:19:17.253Z,92208.78
2023-06-06T12:21:51.403Z,92215.69
2023-06-06T12:24:25.237Z,92205.00
2023-06-06T12:27:01.088Z,92204.25
2023-06-06T12:29:36.482Z,92187.41
2023-06-06T12:32:16.446Z,92198.47
2023-06-06T12:34:50.164Z,92186.59
2023-06-06T12:37:25.287Z,92178.59
2023-06-06T12:39:57.630Z,92175.31
2023-06-06T12:42:30.702Z,92160.50
2023-06-06T12:45:03.543Z,92161.31
2023-06-06T12:47:36.262Z,92162.38
2023-06-06T12:50:11.222Z,92147.53
2023-06-06T12:52:44.025Z,92155.22
2023-06-06T12:55:17.613Z,92149.13
2023-06-06T12:57:51.365Z,92147.16
2023-06-06T13:00:23.746Z,92147.91
2023-06-06T13:02:56.419Z,92157.03
2023-06-06T13:05:28.825Z,92154.34
2023-06-06T13:08:01.431Z,92153.19
2023-06-06T13:10:34.925Z,92151.25
2023-06-06T13:13:07.996Z,92149.75
2023-06-06T13:15:40.801Z,92150.53
2023-06-06T13:18:13.845Z,92144.00
2023-06-06T13:20:46.524Z,92128.38
2023-06-06T13:23:19.020Z,92131.50
2023-06-06T13:25:51.753Z,92131.56
2023-06-06T13:28:25.045Z,92125.09
2023-06-06T13:30:57.593Z,92135.00
2023-06-06T13:33:30.325Z,92121.25
2023-06-06T13:36:03.193Z,92124.16
2023-06-06T13:38:35.709Z,92128.66
2023-06-06T13:41:08.243Z,92126.00
2023-06-06T13:43:41.267Z,92127.06
2023-06-06T13:46:14.421Z,92132.69
2023-06-06T13:48:49.523Z,92132.31
2023-06-06T13:51:21.932Z,92126.25
2023-06-06T13:53:54.272Z,92133.47
2023-06-06T13:56:27.866Z,92135.72
2023-06-06T13:59:01.100Z,92131.19
2023-06-06T14:01:33.905Z,92132.69
2023-06-06T14:04:06.548Z,92132.97
2023-06-06T14:06:39.225Z,92133.63
2023-06-06T14:09:14.853Z,92126.00
2023-06-06T14:11:47.994Z,92129.72
2023-06-06T14:14:20.989Z,92126.34
2023-06-06T14:16:53.374Z,92137.38
2023-06-06T14:19:35.490Z,92139.25
2023-06-06T14:22:21.238Z,92138.41
2023-06-06T14:24:54.839Z,92131.91
2023-06-06T14:27:29.589Z,92138.25
2023-06-06T14:30:05.517Z,92144.59
2023-06-06T14:35:10.979Z,92156.16
2023-06-06T14:37:43.365Z,92148.44
2023-06-06T14:40:16.082Z,92152.88
2023-06-06T14:42:54.507Z,92147.91
2023-06-06T14:46:03.222Z,92150.63
2023-06-06T14:48:49.357Z,92150.47
2023-06-06T14:51:21.712Z,92153.50
2023-06-06T14:53:54.048Z,92159.22
2023-06-06T14:56:27.382Z,92146.72
2023-06-06T14:58:59.944Z,92144.25
2023-06-06T15:01:35.212Z,92145.50
2023-06-06T15:04:07.639Z,92155.50
2023-06-06T15:06:40.950Z,92149.13
2023-06-06T15:09:13.492Z,92149.88
2023-06-06T15:11:48.205Z,92146.41
2023-06-06T15:14:20.802Z,92150.91
2023-06-06T15:16:54.306Z,92159.81
2023-06-06T15:19:26.792Z,92158.59
2023-06-06T15:22:01.554Z,92164.03
2023-06-06T15:24:34.047Z,92168.13
2023-06-06T15:27:06.789Z,92163.13
2023-06-06T15:29:42.902Z,92177.16
2023-06-06T15:32:16.336Z,92171.50
2023-06-06T15:34:48.716Z,92162.41
2023-06-06T15:37:21.472Z,92165.66
2023-06-06T15:39:53.843Z,92175.59
2023-06-06T15:42:26.247Z,92177.69
2023-06-06T15:44:58.908Z,92175.88
2023-06-06T15:47:32.628Z,92178.59
2023-06-06T15:50:05.797Z,92180.13
2023-06-06T15:52:38.150Z,92176.00
2023-06-06T15:55:11.357Z,92176.69
2023-06-06T15:57:43.626Z,92176.81
2023-06-06T16:00:16.780Z,92173.84
2023-06-06T16:02:50.168Z,92180.31
2023-06-06T16:05:22.510Z,92184.84
2023-06-06T16:07:54.892Z,92187.09
2023-06-06T16:10:27.275Z,92188.69
2023-06-06T16:12:59.707Z,92187.50
2023-06-06T16:15:32.030Z,92184.81
2023-06-06T16:18:05.278Z,92202.63
2023-06-06T16:20:44.950Z,92179.84
2023-06-06T16:23:17.302Z,92202.81
2023-06-06T16:25:50.401Z,92194.94
2023-06-06T16:28:24.055Z,92193.09
2023-06-06T16:30:56.484Z,92198.41
2023-06-06T16:33:29.550Z,92194.25
2023-06-06T16:36:01.918Z,92187.88
2023-06-06T16:38:34.253Z,92190.13
2023-06-06T16:41:06.657Z,92188.19
2023-06-06T16:43:39.044Z,92185.44
2023-06-06T16:46:11.721Z,92184.72
2023-06-06T16:48:44.777Z,92181.00
2023-06-06T16:51:17.162Z,92175.28
2023-06-06T16:53:49.526Z,92185.44
2023-06-06T16:56:23.048Z,92186.50
2023-06-06T16:58:55.450Z,92189.88
2023-06-06T17:01:27.950Z,92184.50
2023-06-06T17:04:02.247Z,92187.81
2023-06-06T17:06:34.683Z,92183.91
2023-06-06T17:09:08.512Z,92178.88
2023-06-06T17:11:40.844Z,92185.94
2023-06-06T17:14:13.176Z,92189.94
2023-06-06T17:16:46.981Z,92187.63
2023-06-06T17:19:20.365Z,92191.44
2023-06-06T17:21:52.797Z,92188.75
2023-06-06T17:24:25.171Z,92190.22
2023-06-06T17:26:57.495Z,92183.69
2023-06-06T17:29:29.949Z,92180.22
2023-06-06T17:32:02.366Z,92174.00
2023-06-06T17:34:35.889Z,92183.78
2023-06-06T17:37:08.254Z,92188.50
2023-06-06T17:39:41.080Z,92178.53
2023-06-06T17:42:15.064Z,92196.38
2023-06-06T17:44:47.611Z,92197.06
2023-06-06T17:47:20.148Z,92195.44
2023-06-06T17:49:53.590Z,92194.84
2023-06-06T17:52:26.150Z,92188.19
2023-06-06T17:54:59.506Z,92188.06
2023-06-06T17:57:32.161Z,92191.06
2023-06-06T18:00:06.846Z,92192.53
2023-06-06T18:02:40.748Z,92198.59
2023-06-06T18:05:27.804Z,92199.00
2023-06-06T18:08:06.156Z,92204.69
2023-06-06T18:10:38.509Z,92201.31
2023-06-06T18:13:10.833Z,92201.38
2023-06-06T18:15:43.663Z,92207.72
2023-06-06T18:18:16.308Z,92214.06
2023-06-06T18:20:51.027Z,92217.69
2023-06-06T18:23:23.689Z,92221.28
2023-06-06T18:25:56.541Z,92224.19
2023-06-06T18:28:28.849Z,92221.13
2023-06-06T18:31:01.647Z,92223.91
2023-06-06T18:33:34.049Z,92213.28
2023-06-06T18:36:07.343Z,92218.41
2023-06-06T18:38:39.703Z,92216.38
2023-06-06T18:41:12.029Z,92219.91
2023-06-06T18:43:44.494Z,92213.69
2023-06-06T18:46:16.954Z,92217.25
2023-06-06T18:48:49.347Z,92211.41
2023-06-06T18:51:22.397Z,92215.09
2023-06-06T18:53:54.765Z,92214.09
2023-06-06T18:56:27.362Z,92222.75
2023-06-06T18:59:05.659Z,92229.41
2023-06-06T19:01:38.016Z,92224.91
2023-06-06T19:04:10.538Z,92231.19
2023-06-06T19:06:43.577Z,92232.66
2023-06-06T19:09:15.999Z,92233.09
2023-06-06T19:11:48.439Z,92230.69
2023-06-06T19:14:21.033Z,92232.47
2023-06-06T19:16:53.336Z,92236.31
2023-06-06T19:19:27.657Z,92233.59
2023-06-06T19:22:02.780Z,92237.09
2023-06-06T19:24:35.194Z,92239.66
2023-06-06T19:27:07.750Z,92238.47
2023-06-06T19:29:40.109Z,92246.28
2023-06-06T19:32:12.548Z,92247.22
2023-06-06T19:34:45.177Z,92247.81
2023-06-06T19:37:18.256Z,92247.44
2023-06-06T19:39:52.919Z,92248.00
2023-06-06T19:42:25.458Z,92248.66
2023-06-06T19:44:57.819Z,92244.81
2023-06-06T19:47:30.214Z,92246.78
2023-06-06T19:50:03.547Z,92249.59
2023-06-06T19:52:36.915Z,92249.81
2023-06-06T19:55:10.268Z,92238.38
2023-06-06T19:57:43.237Z,92235.16
2023-06-06T20:00:16.502Z,92241.88
2023-06-06T20:02:49.032Z,92240.56
2023-06-06T20:05:21.526Z,92232.94
2023-06-06T20:07:54.582Z,92236.84
2023-06-06T20:10:27.046Z,92234.44
2023-06-06T20:12:59.465Z,92241.72
2023-06-06T20:15:31.866Z,92243.47
2023-06-06T20:18:04.363Z,92255.34
2023-06-06T20:20:41.654Z,92258.66
2023-06-06T20:23:14.833Z,92258.56
2023-06-06T20:26:00.934Z,92254.28
2023-06-06T20:28:33.667Z,92259.25
2023-06-06T20:31:06.472Z,92257.38
2023-06-06T20:33:38.934Z,92270.34
2023-06-06T20:36:12.222Z,92273.72
2023-06-06T20:38:50.362Z,92279.22
2023-06-06T20:41:23.259Z,92283.06
2023-06-06T20:43:58.637Z,92284.81
2023-06-06T20:46:31.119Z,92279.13
2023-06-06T20:49:03.719Z,92278.22
2023-06-06T20:51:36.646Z,92280.44
2023-06-06T20:54:10.139Z,92272.06
2023-06-06T20:56:42.567Z,92277.59
2023-06-06T20:59:14.946Z,92273.25
2023-06-06T21:01:47.392Z,92273.38
2023-06-06T21:04:20.897Z,92279.41
2023-06-06T21:06:53.522Z,92280.03
2023-06-06T21:09:26.606Z,92292.88
2023-06-06T21:11:58.951Z,92282.97
2023-06-06T21:14:31.846Z,92288.69
2023-06-06T21:17:04.816Z,92291.75
2023-06-06T21:19:37.649Z,92291.34
2023-06-06T21:22:09.975Z,92289.22
2023-06-06T21:24:43.041Z,92296.00
2023-06-06T21:27:15.854Z,92299.22
2023-06-06T21:29:48.551Z,92295.50
2023-06-06T21:32:21.017Z,92298.00
2023-06-06T21:34:53.426Z,92295.47
2023-06-06T21:37:27.370Z,92296.56
2023-06-06T21:40:00.596Z,92291.81
2023-06-06T21:42:33.338Z,92299.09
2023-06-06T21:45:06.693Z,92300.19
2023-06-06T21:47:39.192Z,92297.84
2023-06-06T21:50:12.337Z,92300.47
2023-06-06T21:52:45.056Z,92301.75
2023-06-06T21:55:18.213Z,92305.47
2023-06-06T21:57:50.790Z,92303.75
2023-06-06T22:00:23.310Z,92306.19
2023-06-06T22:02:55.794Z,92301.25
2023-06-06T22:05:28.253Z,92304.66
2023-06-06T22:08:00.998Z,92301.38
2023-06-06T22:10:34.024Z,92271.75
2023-06-06T22:13:06.455Z,92299.31
2023-06-06T22:15:41.239Z,92301.69
2023-06-06T22:18:13.654Z,92293.94
2023-06-06T22:20:46.153Z,92302.47
2023-06-06T22:23:18.585Z,92295.88
2023-06-06T22:26:06.802Z,92296.13
2023-06-06T22:28:43.869Z,92292.28
2023-06-06T22:31:16.347Z,92306.25
2023-06-06T22:33:48.762Z,92291.56
2023-06-06T22:36:21.159Z,92294.06
2023-06-06T22:38:53.622Z,92291.91
2023-06-06T22:41:26.971Z,92292.66
2023-06-06T22:44:00.256Z,92295.03
2023-06-06T22:46:32.902Z,92303.09
2023-06-06T22:49:05.324Z,92293.69
2023-06-06T22:51:37.765Z,92300.16
2023-06-06T22:54:10.184Z,92294.13
2023-06-06T22:56:43.212Z,92293.38
2023-06-06T22:59:15.635Z,92302.28
2023-06-06T23:01:50.198Z,92303.22
2023-06-06T23:04:22.571Z,92299.72
2023-06-06T23:06:55.108Z,92296.25
2023-06-06T23:09:27.486Z,92291.44
2023-06-06T23:12:00.977Z,92286.84
2023-06-06T23:14:36.831Z,92289.00
2023-06-06T23:17:11.860Z,92284.69
2023-06-06T23:19:44.304Z,92278.09
2023-06-06T23:22:17.686Z,92277.84
2023-06-06T23:24:51.325Z,92273.81
2023-06-06T23:27:24.340Z,92274.38
2023-06-06T23:29:57.597Z,92273.50
2023-06-06T23:32:30.330Z,92272.91
2023-06-06T23:35:02.911Z,92274.78
2023-06-06T23:37:35.348Z,92269.53
2023-06-06T23:40:09.266Z,92272.91
2023-06-06T23:42:42.310Z,92269.00
2023-06-06T23:45:14.773Z,92268.25
2023-06-06T23:47:47.136Z,92263.59
2023-06-06T23:50:19.647Z,92260.53
2023-06-06T23:52:52.057Z,92261.94
2023-06-06T23:55:24.403Z,92259.69
2023-06-06T23:57:57.458Z,92257.78
